sensor_id;sensor_type;location;lat;lon;timestamp;temperature;humidity
16140;DHT22;8175;49.326;12.690;2023-09-19T07:13:28;15.90;99.90
16140;DHT22;8175;49.326;12.690;2023-09-19T07:15:54;16.10;99.90
16140;DHT22;8175;49.326;12.690;2023-09-19T07:18:20;16.30;99.90
16140;DHT22;8175;49.326;12.690;2023-09-19T07:20:46;16.40;99.90
16140;DHT22;8175;49.326;12.690;2023-09-19T07:23:21;16.50;99.90
16140;DHT22;8175;49.326;12.690;2023-09-19T07:25:48;16.40;99.90
16140;DHT22;8175;49.326;12.690;2023-09-19T07:28:15;16.50;99.90
16140;DHT22;8175;49.326;12.690;2023-09-19T07:30:41;16.50;99.90
16140;DHT22;8175;49.326;12.690;2023-09-19T07:33:07;16.40;99.90
16140;DHT22;8175;49.326;12.690;2023-09-19T07:35:37;16.50;99.90
16140;DHT22;8175;49.326;12.690;2023-09-19T07:38:05;16.50;99.90
16140;DHT22;8175;49.326;12.690;2023-09-19T07:40:31;16.50;99.90
16140;DHT22;8175;49.326;12.690;2023-09-19T07:42:56;16.50;99.90
16140;DHT22;8175;49.326;12.690;2023-09-19T07:45:22;16.50;99.90
16140;DHT22;8175;49.326;12.690;2023-09-19T07:47:51;16.70;99.90
16140;DHT22;8175;49.326;12.690;2023-09-19T07:50:17;16.80;99.90
16140;DHT22;8175;49.326;12.690;2023-09-19T07:52:50;17.00;99.90
16140;DHT22;8175;49.326;12.690;2023-09-19T07:55:19;17.10;99.90
16140;DHT22;8175;49.326;12.690;2023-09-19T07:57:49;17.30;99.90
16140;DHT22;8175;49.326;12.690;2023-09-19T08:00:15;17.40;99.90
16140;DHT22;8175;49.326;12.690;2023-09-19T08:02:41;17.60;99.90
16140;DHT22;8175;49.326;12.690;2023-09-19T08:05:11;17.60;99.90
16140;DHT22;8175;49.326;12.690;2023-09-19T08:07:38;17.50;99.90
16140;DHT22;8175;49.326;12.690;2023-09-19T08:10:05;17.30;99.90
16140;DHT22;8175;49.326;12.690;2023-09-19T08:12:40;17.20;99.90
16140;DHT22;8175;49.326;12.690;2023-09-19T08:15:18;17.10;99.90
16140;DHT22;8175;49.326;12.690;2023-09-19T08:17:45;17.40;99.90
16140;DHT22;8175;49.326;12.690;2023-09-19T08:20:11;17.60;99.90
16140;DHT22;8175;49.326;12.690;2023-09-19T08:22:48;17.60;99.90
16140;DHT22;8175;49.326;12.690;2023-09-19T08:25:18;17.40;99.90
16140;DHT22;8175;49.326;12.690;2023-09-19T08:27:47;17.50;99.90
16140;DHT22;8175;49.326;12.690;2023-09-19T08:30:22;17.90;99.90
16140;DHT22;8175;49.326;12.690;2023-09-19T08:32:50;18.20;99.90
16140;DHT22;8175;49.326;12.690;2023-09-19T08:35:15;18.20;99.90
16140;DHT22;8175;49.326;12.690;2023-09-19T08:37:42;17.90;99.90
16140;DHT22;8175;49.326;12.690;2023-09-19T08:40:10;17.70;99.90
16140;DHT22;8175;49.326;12.690;2023-09-19T08:42:51;17.50;99.90
16140;DHT22;8175;49.326;12.690;2023-09-19T08:45:17;17.70;99.90
16140;DHT22;8175;49.326;12.690;2023-09-19T08:47:50;17.80;99.90
16140;DHT22;8175;49.326;12.690;2023-09-19T08:50:26;17.90;99.90
16140;DHT22;8175;49.326;12.690;2023-09-19T08:52:55;17.80;99.90
16140;DHT22;8175;49.326;12.690;2023-09-19T08:55:27;17.90;99.90
16140;DHT22;8175;49.326;12.690;2023-09-19T08:58:00;18.50;99.90
16140;DHT22;8175;49.326;12.690;2023-09-19T09:00:28;18.80;99.90
16140;DHT22;8175;49.326;12.690;2023-09-19T09:02:55;19.50;99.90
16140;DHT22;8175;49.326;12.690;2023-09-19T09:05:23;19.60;99.90
16140;DHT22;8175;49.326;12.690;2023-09-19T09:07:52;19.40;99.90
16140;DHT22;8175;49.326;12.690;2023-09-19T09:10:22;19.20;99.90
16140;DHT22;8175;49.326;12.690;2023-09-19T09:12:52;19.10;99.90
16140;DHT22;8175;49.326;12.690;2023-09-19T09:15:22;19.50;99.90
16140;DHT22;8175;49.326;12.690;2023-09-19T09:17:49;19.90;99.90
16140;DHT22;8175;49.326;12.690;2023-09-19T09:20:16;20.30;99.90
16140;DHT22;8175;49.326;12.690;2023-09-19T09:22:53;20.30;99.90
16140;DHT22;8175;49.326;12.690;2023-09-19T09:25:20;20.40;99.90
16140;DHT22;8175;49.326;12.690;2023-09-19T09:27:59;20.10;99.90
16140;DHT22;8175;49.326;12.690;2023-09-19T09:30:44;19.80;99.90
16140;DHT22;8175;49.326;12.690;2023-09-19T09:33:11;19.80;99.90
16140;DHT22;8175;49.326;12.690;2023-09-19T09:35:57;19.80;99.90
16140;DHT22;8175;49.326;12.690;2023-09-19T09:38:24;19.70;99.90
16140;DHT22;8175;49.326;12.690;2023-09-19T09:40:54;19.50;99.90
16140;DHT22;8175;49.326;12.690;2023-09-19T09:43:28;19.70;99.90
16140;DHT22;8175;49.326;12.690;2023-09-19T09:46:19;19.90;99.90
16140;DHT22;8175;49.326;12.690;2023-09-19T09:49:10;19.50;99.90
16140;DHT22;8175;49.326;12.690;2023-09-19T09:51:42;19.30;99.90
16140;DHT22;8175;49.326;12.690;2023-09-19T09:54:16;19.20;99.90
16140;DHT22;8175;49.326;12.690;2023-09-19T09:56:58;19.10;99.90
16140;DHT22;8175;49.326;12.690;2023-09-19T10:02:21;19.10;99.90
16140;DHT22;8175;49.326;12.690;2023-09-19T10:04:54;19.30;99.90
16140;DHT22;8175;49.326;12.690;2023-09-19T10:07:25;19.70;99.90
16140;DHT22;8175;49.326;12.690;2023-09-19T10:09:53;19.80;99.90
16140;DHT22;8175;49.326;12.690;2023-09-19T10:12:24;20.00;99.90
16140;DHT22;8175;49.326;12.690;2023-09-19T10:14:56;20.80;99.90
16140;DHT22;8175;49.326;12.690;2023-09-19T10:17:26;20.80;99.90
16140;DHT22;8175;49.326;12.690;2023-09-19T10:19:56;20.40;99.90
16140;DHT22;8175;49.326;12.690;2023-09-19T10:22:26;20.10;99.90
16140;DHT22;8175;49.326;12.690;2023-09-19T10:24:56;20.10;99.90
16140;DHT22;8175;49.326;12.690;2023-09-19T10:27:26;19.90;99.90
16140;DHT22;8175;49.326;12.690;2023-09-19T10:29:52;19.90;99.90
16140;DHT22;8175;49.326;12.690;2023-09-19T10:32:23;20.20;99.90
16140;DHT22;8175;49.326;12.690;2023-09-19T10:34:49;20.50;99.90
16140;DHT22;8175;49.326;12.690;2023-09-19T10:37:18;20.60;99.90
16140;DHT22;8175;49.326;12.690;2023-09-19T10:39:48;20.40;99.90
16140;DHT22;8175;49.326;12.690;2023-09-19T10:42:19;20.60;99.90
16140;DHT22;8175;49.326;12.690;2023-09-19T10:44:47;20.70;99.90
16140;DHT22;8175;49.326;12.690;2023-09-19T10:47:14;20.40;99.90
16140;DHT22;8175;49.326;12.690;2023-09-19T10:49:45;20.40;99.90
16140;DHT22;8175;49.326;12.690;2023-09-19T10:52:17;20.50;99.90
16140;DHT22;8175;49.326;12.690;2023-09-19T10:54:49;20.10;99.90
16140;DHT22;8175;49.326;12.690;2023-09-19T10:57:24;19.90;99.90
16140;DHT22;8175;49.326;12.690;2023-09-19T11:00:06;19.80;99.90
16140;DHT22;8175;49.326;12.690;2023-09-19T11:05:39;20.10;99.90
16140;DHT22;8175;49.326;12.690;2023-09-19T11:08:09;20.00;99.90
16140;DHT22;8175;49.326;12.690;2023-09-19T11:10:45;19.90;99.90
16140;DHT22;8175;49.326;12.690;2023-09-19T11:26:45;23.60;99.90
16140;DHT22;8175;49.326;12.690;2023-09-19T11:29:29;23.60;99.90
16140;DHT22;8175;49.326;12.690;2023-09-19T11:31:56;22.50;99.90
16140;DHT22;8175;49.326;12.690;2023-09-19T11:39:40;22.00;99.90
16140;DHT22;8175;49.326;12.690;2023-09-19T11:48:14;20.30;99.90
16140;DHT22;8175;49.326;12.690;2023-09-19T11:50:44;20.20;99.90
16140;DHT22;8175;49.326;12.690;2023-09-19T11:53:11;20.30;99.90
16140;DHT22;8175;49.326;12.690;2023-09-19T11:55:39;20.30;99.90
16140;DHT22;8175;49.326;12.690;2023-09-19T11:58:07;20.40;99.90
16140;DHT22;8175;49.326;12.690;2023-09-19T12:00:37;21.50;99.90
16140;DHT22;8175;49.326;12.690;2023-09-19T12:03:09;23.60;99.90
16140;DHT22;8175;49.326;12.690;2023-09-19T12:05:35;24.70;99.90
16140;DHT22;8175;49.326;12.690;2023-09-19T12:08:05;25.60;99.90
16140;DHT22;8175;49.326;12.690;2023-09-19T12:10:49;25.70;99.90
16140;DHT22;8175;49.326;12.690;2023-09-19T12:13:21;26.00;99.90
16140;DHT22;8175;49.326;12.690;2023-09-19T12:15:46;26.20;99.90
16140;DHT22;8175;49.326;12.690;2023-09-19T12:18:31;25.10;99.90
16140;DHT22;8175;49.326;12.690;2023-09-19T12:20:57;23.30;99.90
16140;DHT22;8175;49.326;12.690;2023-09-19T12:23:24;21.90;99.90
16140;DHT22;8175;49.326;12.690;2023-09-19T12:25:51;21.10;99.90
16140;DHT22;8175;49.326;12.690;2023-09-19T12:28:18;21.20;99.90
16140;DHT22;8175;49.326;12.690;2023-09-19T12:30:44;21.00;99.90
16140;DHT22;8175;49.326;12.690;2023-09-19T12:33:20;21.20;99.90
16140;DHT22;8175;49.326;12.690;2023-09-19T12:35:46;21.80;99.90
16140;DHT22;8175;49.326;12.690;2023-09-19T12:38:23;21.90;99.90
16140;DHT22;8175;49.326;12.690;2023-09-19T12:40:50;21.50;99.90
16140;DHT22;8175;49.326;12.690;2023-09-19T12:43:17;21.00;99.90
16140;DHT22;8175;49.326;12.690;2023-09-19T12:45:43;22.30;99.90
16140;DHT22;8175;49.326;12.690;2023-09-19T12:48:25;23.60;99.90
16140;DHT22;8175;49.326;12.690;2023-09-19T12:51:08;24.50;99.90
16140;DHT22;8175;49.326;12.690;2023-09-19T12:53:39;24.40;99.90
16140;DHT22;8175;49.326;12.690;2023-09-19T12:56:16;25.20;99.90
16140;DHT22;8175;49.326;12.690;2023-09-19T12:58:53;24.20;99.90
16140;DHT22;8175;49.326;12.690;2023-09-19T13:01:19;23.80;99.90
16140;DHT22;8175;49.326;12.690;2023-09-19T13:03:45;24.50;99.90
16140;DHT22;8175;49.326;12.690;2023-09-19T13:06:11;25.30;98.50
16140;DHT22;8175;49.326;12.690;2023-09-19T13:08:39;25.50;96.00
16140;DHT22;8175;49.326;12.690;2023-09-19T13:11:14;25.90;97.10
16140;DHT22;8175;49.326;12.690;2023-09-19T13:13:45;25.90;94.00
16140;DHT22;8175;49.326;12.690;2023-09-19T13:16:13;25.50;94.20
16140;DHT22;8175;49.326;12.690;2023-09-19T13:18:54;25.10;94.60
16140;DHT22;8175;49.326;12.690;2023-09-19T13:21:32;23.60;95.90
16140;DHT22;8175;49.326;12.690;2023-09-19T13:24:20;22.60;98.20
16140;DHT22;8175;49.326;12.690;2023-09-19T13:26:46;23.30;97.90
16140;DHT22;8175;49.326;12.690;2023-09-19T13:29:12;24.00;96.40
16140;DHT22;8175;49.326;12.690;2023-09-19T13:31:39;23.70;96.50
16140;DHT22;8175;49.326;12.690;2023-09-19T13:34:07;23.00;97.10
16140;DHT22;8175;49.326;12.690;2023-09-19T13:36:33;23.40;99.30
16140;DHT22;8175;49.326;12.690;2023-09-19T13:38:59;23.90;97.80
16140;DHT22;8175;49.326;12.690;2023-09-19T13:41:25;24.20;96.40
16140;DHT22;8175;49.326;12.690;2023-09-19T13:43:51;24.90;97.00
16140;DHT22;8175;49.326;12.690;2023-09-19T13:46:18;25.10;95.30
16140;DHT22;8175;49.326;12.690;2023-09-19T13:48:51;24.30;97.10
16140;DHT22;8175;49.326;12.690;2023-09-19T13:51:17;22.90;98.80
16140;DHT22;8175;49.326;12.690;2023-09-19T13:53:44;21.90;99.90
16140;DHT22;8175;49.326;12.690;2023-09-19T13:56:10;21.20;99.90
16140;DHT22;8175;49.326;12.690;2023-09-19T13:58:36;21.30;99.90
16140;DHT22;8175;49.326;12.690;2023-09-19T14:01:02;21.30;99.90
16140;DHT22;8175;49.326;12.690;2023-09-19T14:03:28;21.20;99.90
16140;DHT22;8175;49.326;12.690;2023-09-19T14:05:54;21.40;99.90
16140;DHT22;8175;49.326;12.690;2023-09-19T14:08:20;21.90;99.90
16140;DHT22;8175;49.326;12.690;2023-09-19T14:10:45;21.90;99.90
16140;DHT22;8175;49.326;12.690;2023-09-19T14:13:11;21.70;99.90
16140;DHT22;8175;49.326;12.690;2023-09-19T14:15:38;21.70;99.90
16140;DHT22;8175;49.326;12.690;2023-09-19T14:18:04;22.70;99.90
16140;DHT22;8175;49.326;12.690;2023-09-19T14:20:30;23.10;99.90
16140;DHT22;8175;49.326;12.690;2023-09-19T14:22:57;22.60;99.90
16140;DHT22;8175;49.326;12.690;2023-09-19T14:25:24;23.20;99.90
16140;DHT22;8175;49.326;12.690;2023-09-19T14:27:50;24.10;99.90
16140;DHT22;8175;49.326;12.690;2023-09-19T14:30:17;24.70;99.90
16140;DHT22;8175;49.326;12.690;2023-09-19T14:32:42;25.20;99.00
16140;DHT22;8175;49.326;12.690;2023-09-19T14:35:08;24.60;99.90
16140;DHT22;8175;49.326;12.690;2023-09-19T14:37:40;23.70;99.40
16140;DHT22;8175;49.326;12.690;2023-09-19T14:40:06;23.40;99.90
16140;DHT22;8175;49.326;12.690;2023-09-19T14:42:35;23.90;99.90
16140;DHT22;8175;49.326;12.690;2023-09-19T14:45:02;24.50;99.50
16140;DHT22;8175;49.326;12.690;2023-09-19T14:47:30;24.30;97.70
16140;DHT22;8175;49.326;12.690;2023-09-19T14:49:57;23.50;98.60
16140;DHT22;8175;49.326;12.690;2023-09-19T14:52:23;23.40;99.20
16140;DHT22;8175;49.326;12.690;2023-09-19T14:54:51;23.40;99.00
16140;DHT22;8175;49.326;12.690;2023-09-19T14:57:17;23.70;99.80
16140;DHT22;8175;49.326;12.690;2023-09-19T14:59:42;23.50;98.30
16140;DHT22;8175;49.326;12.690;2023-09-19T15:02:08;23.00;98.10
16140;DHT22;8175;49.326;12.690;2023-09-19T15:04:33;22.50;98.60
16140;DHT22;8175;49.326;12.690;2023-09-19T15:06:59;22.40;99.00
16140;DHT22;8175;49.326;12.690;2023-09-19T15:09:25;22.50;99.10
16140;DHT22;8175;49.326;12.690;2023-09-19T15:11:55;22.50;99.20
16140;DHT22;8175;49.326;12.690;2023-09-19T15:14:21;22.40;99.00
16140;DHT22;8175;49.326;12.690;2023-09-19T15:16:47;21.70;99.90
16140;DHT22;8175;49.326;12.690;2023-09-19T15:19:14;21.70;99.80
16140;DHT22;8175;49.326;12.690;2023-09-19T15:21:40;21.60;99.90
16140;DHT22;8175;49.326;12.690;2023-09-19T15:24:06;21.60;99.90
16140;DHT22;8175;49.326;12.690;2023-09-19T15:26:38;21.50;99.90
16140;DHT22;8175;49.326;12.690;2023-09-19T15:29:09;21.20;99.90
16140;DHT22;8175;49.326;12.690;2023-09-19T15:31:35;20.70;99.90
16140;DHT22;8175;49.326;12.690;2023-09-19T15:34:05;20.50;99.90
16140;DHT22;8175;49.326;12.690;2023-09-19T15:36:34;20.40;99.90
16140;DHT22;8175;49.326;12.690;2023-09-19T15:39:04;20.20;99.90
16140;DHT22;8175;49.326;12.690;2023-09-19T15:41:40;20.10;99.90
16140;DHT22;8175;49.326;12.690;2023-09-19T15:44:17;20.00;99.90
16140;DHT22;8175;49.326;12.690;2023-09-19T15:46:44;19.90;99.90
16140;DHT22;8175;49.326;12.690;2023-09-19T15:49:10;19.80;99.90
16140;DHT22;8175;49.326;12.690;2023-09-19T15:51:36;19.70;99.90
16140;DHT22;8175;49.326;12.690;2023-09-19T15:54:08;19.50;99.90
16140;DHT22;8175;49.326;12.690;2023-09-19T15:56:34;19.40;99.90
16140;DHT22;8175;49.326;12.690;2023-09-19T15:59:04;19.30;99.90
16140;DHT22;8175;49.326;12.690;2023-09-19T16:01:29;19.10;99.90
16140;DHT22;8175;49.326;12.690;2023-09-19T16:03:55;19.00;99.90
16140;DHT22;8175;49.326;12.690;2023-09-19T16:06:26;19.00;99.90
16140;DHT22;8175;49.326;12.690;2023-09-19T16:08:56;18.90;99.90
16140;DHT22;8175;49.326;12.690;2023-09-19T16:11:24;18.90;99.90
16140;DHT22;8175;49.326;12.690;2023-09-19T16:13:50;18.80;99.90
16140;DHT22;8175;49.326;12.690;2023-09-19T16:16:17;18.70;99.90
16140;DHT22;8175;49.326;12.690;2023-09-19T16:18:46;18.60;99.90
16140;DHT22;8175;49.326;12.690;2023-09-19T16:21:13;18.70;99.90
16140;DHT22;8175;49.326;12.690;2023-09-19T16:23:39;18.60;99.90
16140;DHT22;8175;49.326;12.690;2023-09-19T16:26:07;18.50;99.90
16140;DHT22;8175;49.326;12.690;2023-09-19T16:28:35;18.40;99.90
16140;DHT22;8175;49.326;12.690;2023-09-19T16:31:04;18.30;99.90
16140;DHT22;8175;49.326;12.690;2023-09-19T16:33:36;18.10;99.90
16140;DHT22;8175;49.326;12.690;2023-09-19T16:36:10;18.10;99.90
16140;DHT22;8175;49.326;12.690;2023-09-19T16:38:37;17.90;99.90
16140;DHT22;8175;49.326;12.690;2023-09-19T16:41:03;17.80;99.90
16140;DHT22;8175;49.326;12.690;2023-09-19T16:43:33;17.60;99.90
16140;DHT22;8175;49.326;12.690;2023-09-19T16:46:04;17.50;99.90
16140;DHT22;8175;49.326;12.690;2023-09-19T16:48:31;17.40;99.90
16140;DHT22;8175;49.326;12.690;2023-09-19T16:51:08;17.30;99.90
16140;DHT22;8175;49.326;12.690;2023-09-19T16:53:35;17.20;99.90
16140;DHT22;8175;49.326;12.690;2023-09-19T16:56:02;17.20;99.90
16140;DHT22;8175;49.326;12.690;2023-09-19T16:58:29;17.10;99.90
16140;DHT22;8175;49.326;12.690;2023-09-19T17:00:56;17.00;99.90
16140;DHT22;8175;49.326;12.690;2023-09-19T17:03:21;16.80;99.90
16140;DHT22;8175;49.326;12.690;2023-09-19T17:05:49;16.70;99.90
16140;DHT22;8175;49.326;12.690;2023-09-19T17:08:14;16.60;99.90
16140;DHT22;8175;49.326;12.690;2023-09-19T17:10:40;16.50;99.90
16140;DHT22;8175;49.326;12.690;2023-09-19T17:13:10;16.50;99.90
16140;DHT22;8175;49.326;12.690;2023-09-19T17:15:37;16.30;99.90
16140;DHT22;8175;49.326;12.690;2023-09-19T17:18:03;16.20;99.90
16140;DHT22;8175;49.326;12.690;2023-09-19T17:20:29;16.00;99.90
16140;DHT22;8175;49.326;12.690;2023-09-19T17:22:55;15.80;99.90
16140;DHT22;8175;49.326;12.690;2023-09-19T17:25:21;15.70;99.90
16140;DHT22;8175;49.326;12.690;2023-09-19T17:27:48;15.60;99.90
16140;DHT22;8175;49.326;12.690;2023-09-19T17:30:15;15.40;99.90
16140;DHT22;8175;49.326;12.690;2023-09-19T17:32:44;15.30;99.90
16140;DHT22;8175;49.326;12.690;2023-09-19T17:35:11;15.30;99.90
16140;DHT22;8175;49.326;12.690;2023-09-19T17:37:37;15.20;99.90
16140;DHT22;8175;49.326;12.690;2023-09-19T17:40:09;15.30;99.90
16140;DHT22;8175;49.326;12.690;2023-09-19T17:42:38;15.30;99.90
16140;DHT22;8175;49.326;12.690;2023-09-19T17:45:08;15.30;99.90
16140;DHT22;8175;49.326;12.690;2023-09-19T17:47:35;15.30;99.90
16140;DHT22;8175;49.326;12.690;2023-09-19T17:50:02;15.40;99.90
16140;DHT22;8175;49.326;12.690;2023-09-19T17:52:29;15.50;99.90
16140;DHT22;8175;49.326;12.690;2023-09-19T17:54:54;15.50;99.90
16140;DHT22;8175;49.326;12.690;2023-09-19T17:57:20;15.50;99.90
16140;DHT22;8175;49.326;12.690;2023-09-19T17:59:47;15.50;99.90
16140;DHT22;8175;49.326;12.690;2023-09-19T18:02:13;15.50;99.90
16140;DHT22;8175;49.326;12.690;2023-09-19T18:04:39;15.40;99.90
16140;DHT22;8175;49.326;12.690;2023-09-19T18:07:05;15.40;99.90
16140;DHT22;8175;49.326;12.690;2023-09-19T18:09:31;15.30;99.90
16140;DHT22;8175;49.326;12.690;2023-09-19T18:11:56;15.30;99.90
16140;DHT22;8175;49.326;12.690;2023-09-19T18:14:23;15.50;99.90
16140;DHT22;8175;49.326;12.690;2023-09-19T18:16:49;15.50;99.90
16140;DHT22;8175;49.326;12.690;2023-09-19T18:19:15;15.40;99.90
16140;DHT22;8175;49.326;12.690;2023-09-19T18:21:41;15.50;99.90
16140;DHT22;8175;49.326;12.690;2023-09-19T18:24:11;15.50;99.90
16140;DHT22;8175;49.326;12.690;2023-09-19T18:26:40;15.50;99.90
16140;DHT22;8175;49.326;12.690;2023-09-19T18:29:07;15.50;99.90
16140;DHT22;8175;49.326;12.690;2023-09-19T18:31:32;15.50;99.90
16140;DHT22;8175;49.326;12.690;2023-09-19T18:33:59;15.50;99.90
16140;DHT22;8175;49.326;12.690;2023-09-19T18:36:26;15.50;99.90
16140;DHT22;8175;49.326;12.690;2023-09-19T18:38:54;15.40;99.90
16140;DHT22;8175;49.326;12.690;2023-09-19T18:41:20;15.30;99.90
16140;DHT22;8175;49.326;12.690;2023-09-19T18:43:46;15.30;99.90
16140;DHT22;8175;49.326;12.690;2023-09-19T18:46:12;15.20;99.90
16140;DHT22;8175;49.326;12.690;2023-09-19T18:48:39;15.10;99.90
16140;DHT22;8175;49.326;12.690;2023-09-19T18:51:07;15.20;99.90
16140;DHT22;8175;49.326;12.690;2023-09-19T18:53:36;15.30;99.90
16140;DHT22;8175;49.326;12.690;2023-09-19T18:56:09;15.30;99.90
16140;DHT22;8175;49.326;12.690;2023-09-19T18:58:37;15.30;99.90
16140;DHT22;8175;49.326;12.690;2023-09-19T19:01:11;15.40;99.90
16140;DHT22;8175;49.326;12.690;2023-09-19T19:03:37;15.40;99.90
16140;DHT22;8175;49.326;12.690;2023-09-19T19:06:11;15.40;99.90
16140;DHT22;8175;49.326;12.690;2023-09-19T19:08:42;15.50;99.90
16140;DHT22;8175;49.326;12.690;2023-09-19T19:11:15;15.40;99.90
16140;DHT22;8175;49.326;12.690;2023-09-19T19:13:46;15.30;99.90
16140;DHT22;8175;49.326;12.690;2023-09-19T19:16:12;15.20;99.90
16140;DHT22;8175;49.326;12.690;2023-09-19T19:18:39;15.10;99.90
16140;DHT22;8175;49.326;12.690;2023-09-19T19:21:07;15.10;99.90
16140;DHT22;8175;49.326;12.690;2023-09-19T19:23:36;15.10;99.90
16140;DHT22;8175;49.326;12.690;2023-09-19T19:26:03;15.10;99.90
16140;DHT22;8175;49.326;12.690;2023-09-19T19:28:33;15.10;99.90
16140;DHT22;8175;49.326;12.690;2023-09-19T19:31:00;15.00;99.90
16140;DHT22;8175;49.326;12.690;2023-09-19T19:33:26;15.00;99.90
16140;DHT22;8175;49.326;12.690;2023-09-19T19:35:52;14.90;99.90
16140;DHT22;8175;49.326;12.690;2023-09-19T19:38:18;14.80;99.90
16140;DHT22;8175;49.326;12.690;2023-09-19T19:40:45;14.80;99.90
16140;DHT22;8175;49.326;12.690;2023-09-19T19:43:11;14.70;99.90
16140;DHT22;8175;49.326;12.690;2023-09-19T19:45:36;14.70;99.90
16140;DHT22;8175;49.326;12.690;2023-09-19T19:48:03;14.80;99.90
16140;DHT22;8175;49.326;12.690;2023-09-19T19:50:37;14.80;99.90
16140;DHT22;8175;49.326;12.690;2023-09-19T19:53:03;14.80;99.90
16140;DHT22;8175;49.326;12.690;2023-09-19T19:55:31;14.80;99.90
16140;DHT22;8175;49.326;12.690;2023-09-19T19:57:57;14.70;99.90
16140;DHT22;8175;49.326;12.690;2023-09-19T20:00:24;14.70;99.90
16140;DHT22;8175;49.326;12.690;2023-09-19T20:02:50;14.50;99.90
16140;DHT22;8175;49.326;12.690;2023-09-19T20:05:16;14.40;99.90
16140;DHT22;8175;49.326;12.690;2023-09-19T20:07:43;14.30;99.90
16140;DHT22;8175;49.326;12.690;2023-09-19T20:10:10;14.20;99.90
16140;DHT22;8175;49.326;12.690;2023-09-19T20:12:38;14.10;99.90
16140;DHT22;8175;49.326;12.690;2023-09-19T20:15:04;14.10;99.90
16140;DHT22;8175;49.326;12.690;2023-09-19T20:17:30;14.20;99.90
16140;DHT22;8175;49.326;12.690;2023-09-19T20:19:56;14.40;99.90
16140;DHT22;8175;49.326;12.690;2023-09-19T20:22:21;14.60;99.90
16140;DHT22;8175;49.326;12.690;2023-09-19T20:24:47;14.70;99.90
16140;DHT22;8175;49.326;12.690;2023-09-19T20:27:13;14.60;99.90
16140;DHT22;8175;49.326;12.690;2023-09-19T20:29:39;14.70;99.90
